Blackwell, Oklahoma
Current Conditions -  °F | °C
As of 4:15 PM on Saturday 25 Oct 2014 (Local Time) from KBKN Reporting Station
Clear Clear  
Wind Chill: 90°   Ceiling: Unl
Heat Index: 90°   Visibility: 8mi
Dew Point: 61°   Wind: 9mph
Humidity: 38%   Direction: 180°S
Pressure: 29.99"   Gusts: NA
Location:  36.8°N, 97.28°W
Report Text: KBKN 252115Z AUTO 18008KT 8SM CLR 32/16 A2999 RMK AO2
Loading
Personal Weather Stations






























Interactive Weather Map New forecast layout! Learn more

10-Day Weather Forecast

Advertisements
Track Severe Weather on mobile